Time;durP1;ratioP1;P1;durP2;ratioP2;P2;SDS_P1;SDS_P2;PMS_P1;PMS_P2;Temp;Humidity;BMP_temperature;BMP_pressure;BME280_temperature;BME280_humidity;BME280_pressure;Samples;Min_cycle;Max_cycle;Signal;HPM_P1;HPM_P2
2023/01/01 00:01:40;;;;;;;51.10;28.60;;;7.40;99.90;;;;;;4909357;29;20367;-78
2023/01/01 00:04:10;;;;;;;55.03;29.50;;;7.40;99.90;;;;;;4918863;29;20106;-78
2023/01/01 00:06:36;;;;;;;46.78;25.90;;;7.40;99.90;;;;;;4919004;29;20390;-78
2023/01/01 00:11:46;;;;;;;63.78;37.50;;;7.30;99.90;;;;;;4899379;29;20132;-78
2023/01/01 00:14:12;;;;;;;75.95;43.45;;;7.20;99.90;;;;;;4882969;29;20115;-79
2023/01/01 00:16:38;;;;;;;74.28;40.50;;;7.30;99.90;;;;;;4899264;29;20017;-78
2023/01/01 00:19:03;;;;;;;59.20;37.33;;;7.20;99.90;;;;;;4883780;29;20072;-78
2023/01/01 00:21:29;;;;;;;54.00;34.00;;;7.20;99.90;;;;;;4900171;29;20478;-79
2023/01/01 00:23:54;;;;;;;60.25;37.05;;;7.20;99.90;;;;;;4900564;29;20056;-78
2023/01/01 00:26:20;;;;;;;58.00;34.17;;;7.10;99.90;;;;;;4883467;29;20036;-78
2023/01/01 00:28:46;;;;;;;53.42;30.67;;;7.10;99.90;;;;;;4900365;29;20386;-78
2023/01/01 00:31:18;;;;;;;46.70;29.67;;;7.10;99.90;;;;;;4900295;29;20448;-78
2023/01/01 00:33:49;;;;;;;38.78;24.58;;;7.00;99.90;;;;;;4900348;29;20051;-78
2023/01/01 00:36:16;;;;;;;50.47;28.48;;;7.00;99.90;;;;;;4883428;29;20029;-78
2023/01/01 00:38:43;;;;;;;50.35;28.40;;;7.00;99.90;;;;;;4883597;29;20032;-78
2023/01/01 00:41:10;;;;;;;64.07;39.97;;;7.00;99.90;;;;;;4900141;29;20032;-78
2023/01/01 00:43:35;;;;;;;57.53;32.95;;;7.00;99.90;;;;;;4900256;29;20029;-78
2023/01/01 00:46:03;;;;;;;45.53;25.23;;;6.90;99.90;;;;;;4883111;29;20051;-78
2023/01/01 00:48:29;;;;;;;39.08;23.55;;;6.90;99.90;;;;;;4883043;29;20123;-78
2023/01/01 00:50:54;;;;;;;54.40;28.50;;;6.80;99.90;;;;;;4899791;29;20514;-79
2023/01/01 00:53:20;;;;;;;55.28;31.52;;;6.80;99.90;;;;;;4882153;29;20521;-78
2023/01/01 00:55:48;;;;;;;52.92;27.33;;;6.80;99.90;;;;;;4898720;29;20021;-78
2023/01/01 00:58:15;;;;;;;53.40;30.10;;;6.80;99.90;;;;;;4899734;29;20108;-78
2023/01/01 01:00:42;;;;;;;53.92;29.23;;;6.70;99.90;;;;;;4899935;29;20028;-80
2023/01/01 01:03:09;;;;;;;52.53;29.27;;;6.70;99.90;;;;;;4899758;29;20190;-78
2023/01/01 01:05:37;;;;;;;49.53;27.17;;;6.70;99.90;;;;;;4898528;29;20032;-78
2023/01/01 01:08:03;;;;;;;45.38;25.10;;;6.70;99.90;;;;;;4882901;29;20040;-79
2023/01/01 01:10:29;;;;;;;47.08;25.80;;;6.60;99.90;;;;;;4899673;29;20032;-79
2023/01/01 01:12:54;;;;;;;44.08;25.73;;;6.50;99.90;;;;;;4899478;29;20111;-79
2023/01/01 01:15:20;;;;;;;49.30;25.55;;;6.40;99.90;;;;;;4898337;29;20027;-80
2023/01/01 01:17:46;;;;;;;44.83;24.40;;;6.40;99.90;;;;;;4882441;29;20389;-79
2023/01/01 01:20:12;;;;;;;40.55;21.95;;;6.30;99.90;;;;;;4882646;29;20020;-79
2023/01/01 01:22:38;;;;;;;38.08;20.48;;;6.30;99.90;;;;;;4882500;29;20060;-79
2023/01/01 01:25:05;;;;;;;45.53;23.15;;;6.20;99.90;;;;;;4882561;29;20025;-79
2023/01/01 01:27:31;;;;;;;42.67;22.33;;;6.20;99.90;;;;;;4882362;29;20489;-79
2023/01/01 01:29:57;;;;;;;38.20;22.65;;;6.20;99.90;;;;;;4898171;29;20017;-79
2023/01/01 01:32:22;;;;;;;39.65;21.75;;;6.10;99.90;;;;;;4899189;29;20537;-79
2023/01/01 01:34:48;;;;;;;41.33;22.45;;;6.10;99.90;;;;;;4898033;29;20406;-79
2023/01/01 01:37:14;;;;;;;38.78;21.25;;;6.00;99.90;;;;;;4899023;29;20036;-79
2023/01/01 01:39:39;;;;;;;42.38;23.88;;;6.00;99.90;;;;;;4881672;29;20028;-79
2023/01/01 01:42:05;;;;;;;40.25;20.67;;;6.00;99.90;;;;;;4881852;29;20037;-78
2023/01/01 01:44:52;;;;;;;42.28;24.48;;;5.80;99.90;;;;;;4882303;29;20495;-79
2023/01/01 01:47:21;;;;;;;42.90;23.90;;;5.70;99.90;;;;;;4899048;29;20039;-79
2023/01/01 01:49:50;;;;;;;43.20;26.27;;;5.70;99.90;;;;;;4880151;29;20080;-79
2023/01/01 01:52:16;;;;;;;44.45;26.98;;;5.60;99.90;;;;;;4878354;29;20033;-79
2023/01/01 01:54:41;;;;;;;47.53;25.17;;;5.50;99.90;;;;;;4878978;29;20517;-78
2023/01/01 01:57:10;;;;;;;40.92;24.10;;;5.50;99.90;;;;;;4878772;29;20494;-78
2023/01/01 01:59:41;;;;;;;46.33;24.23;;;5.40;99.90;;;;;;4880130;29;20084;-78
2023/01/01 02:02:33;;;;;;;55.28;29.88;;;5.40;99.90;;;;;;4879957;29;20105;-78
2023/01/01 02:04:58;;;;;;;46.80;27.08;;;5.40;99.90;;;;;;4887987;29;20021;-78
2023/01/01 02:07:26;;;;;;;43.67;26.42;;;5.40;99.90;;;;;;4898686;29;20367;-78
2023/01/01 02:09:53;;;;;;;46.20;25.33;;;5.40;99.90;;;;;;4898526;29;20069;-78
2023/01/01 02:12:18;;;;;;;43.30;24.75;;;5.40;99.90;;;;;;4897263;29;20020;-78
2023/01/01 02:14:44;;;;;;;46.80;25.50;;;5.40;99.90;;;;;;4898434;29;20106;-78
2023/01/01 02:17:20;;;;;;;38.72;21.90;;;5.30;99.90;;;;;;4912856;29;20036;-79
2023/01/01 02:20:14;;;;;;;34.88;20.42;;;5.30;99.90;;;;;;4897581;29;20084;-79
2023/01/01 02:23:01;;;;;;;40.30;22.25;;;5.30;99.90;;;;;;4896885;29;20072;-79
2023/01/01 02:25:31;;;;;;;45.67;23.83;;;5.20;99.90;;;;;;4897163;29;20029;-78
2023/01/01 02:28:32;;;;;;;39.30;21.20;;;5.20;99.90;;;;;;4912469;29;20047;-78
2023/01/01 02:31:00;;;;;;;41.92;23.10;;;5.20;99.90;;;;;;4898146;29;20028;-78
2023/01/01 02:33:27;;;;;;;36.25;21.95;;;5.20;99.90;;;;;;4881379;29;20044;-78
2023/01/01 02:35:58;;;;;;;40.22;22.15;;;5.10;99.90;;;;;;4898286;29;20068;-77
2023/01/01 02:38:39;;;;;;;36.13;20.52;;;5.10;99.90;;;;;;4898377;29;20031;-77
2023/01/01 02:41:10;;;;;;;43.33;22.70;;;5.10;99.90;;;;;;4881581;29;20032;-78
2023/01/01 02:43:36;;;;;;;37.88;21.52;;;5.00;99.90;;;;;;4896882;29;20063;-78
2023/01/01 02:46:08;;;;;;;42.38;23.73;;;5.00;99.90;;;;;;4896877;29;20115;-78
2023/01/01 02:48:48;;;;;;;39.58;23.17;;;4.90;99.90;;;;;;4898139;29;20039;-78
2023/01/01 02:51:29;;;;;;;43.65;24.02;;;4.80;99.90;;;;;;4881301;29;20021;-78
2023/01/01 02:54:17;;;;;;;41.58;25.52;;;4.70;99.90;;;;;;4881080;29;20127;-78
2023/01/01 02:57:07;;;;;;;51.30;30.05;;;4.60;99.90;;;;;;4881331;29;20039;-78
2023/01/01 03:02:44;;;;;;;50.00;28.63;;;4.50;99.90;;;;;;4898297;29;20120;-79
2023/01/01 03:05:34;;;;;;;48.90;28.45;;;4.50;99.90;;;;;;4891053;29;20064;-78
2023/01/01 03:08:16;;;;;;;47.28;25.30;;;4.40;99.90;;;;;;4899972;29;20133;-78
2023/01/01 03:11:05;;;;;;;43.53;24.55;;;4.40;99.90;;;;;;4917005;29;20036;-78
2023/01/01 03:14:01;;;;;;;42.47;23.35;;;4.30;99.90;;;;;;4915716;29;20123;-78
2023/01/01 03:17:13;;;;;;;39.67;20.88;;;4.30;99.90;;;;;;4918858;29;20052;-78
2023/01/01 03:19:40;;;;;;;45.53;22.85;;;4.30;99.90;;;;;;4910262;29;20043;-78
2023/01/01 03:22:12;;;;;;;40.03;21.35;;;4.30;99.90;;;;;;4919139;29;20056;-78
2023/01/01 03:24:47;;;;;;;39.90;22.25;;;4.20;99.90;;;;;;4920501;29;20040;-79
2023/01/01 03:27:27;;;;;;;46.55;23.17;;;4.30;99.90;;;;;;4901383;29;20032;-78
2023/01/01 03:29:55;;;;;;;42.17;22.75;;;4.40;99.90;;;;;;4884688;29;20474;-79
2023/01/01 03:35:19;;;;;;;43.45;22.42;;;4.40;99.90;;;;;;4901435;29;20056;-78
2023/01/01 03:37:48;;;;;;;46.08;23.40;;;4.40;99.90;;;;;;4884557;29;20123;-78
2023/01/01 03:40:16;;;;;;;42.35;21.38;;;4.40;99.90;;;;;;4884358;29;20060;-77
2023/01/01 03:42:48;;;;;;;42.55;21.17;;;4.40;99.90;;;;;;4899961;29;20025;-77
2023/01/01 03:45:24;;;;;;;37.65;22.10;;;4.30;99.90;;;;;;4884138;29;20051;-77
2023/01/01 03:47:50;;;;;;;45.40;23.40;;;4.20;99.90;;;;;;4901416;29;20057;-78
2023/01/01 03:50:17;;;;;;;45.35;23.40;;;4.20;99.90;;;;;;4901079;29;20435;-78
2023/01/01 03:52:45;;;;;;;35.97;20.30;;;4.30;99.90;;;;;;4901117;29;20035;-78
2023/01/01 03:55:33;;;;;;;44.10;22.45;;;4.20;99.90;;;;;;4900949;29;20035;-77
2023/01/01 03:58:19;;;;;;;40.20;23.48;;;4.10;99.90;;;;;;4901178;29;20020;-78
2023/01/01 04:00:52;;;;;;;48.65;23.65;;;4.00;99.90;;;;;;4901196;29;20033;-77
2023/01/01 04:03:22;;;;;;;42.45;22.98;;;4.00;99.90;;;;;;4899782;29;20028;-78
2023/01/01 04:05:49;;;;;;;42.53;23.02;;;3.90;99.90;;;;;;4899182;29;20554;-77
2023/01/01 04:08:15;;;;;;;41.67;21.42;;;3.90;99.90;;;;;;4919803;29;20038;-79
2023/01/01 04:10:47;;;;;;;40.33;22.23;;;4.00;99.90;;;;;;4902678;29;20027;-79
2023/01/01 04:13:12;;;;;;;44.60;24.92;;;4.10;99.90;;;;;;4902718;29;20095;-77
2023/01/01 04:15:38;;;;;;;42.78;23.23;;;4.20;99.90;;;;;;4902498;29;20031;-78
2023/01/01 04:18:04;;;;;;;47.17;24.30;;;4.20;99.90;;;;;;4902575;29;20028;-78
2023/01/01 04:20:30;;;;;;;55.30;26.73;;;4.30;99.90;;;;;;4918224;29;20111;-78
2023/01/01 04:23:00;;;;;;;48.22;26.05;;;4.50;99.90;;;;;;4919495;29;20079;-78
2023/01/01 04:25:26;;;;;;;47.08;24.17;;;4.60;99.90;;;;;;4902278;29;20043;-78
2023/01/01 04:27:52;;;;;;;45.25;24.77;;;4.70;99.90;;;;;;4893411;29;20028;-77
2023/01/01 04:30:18;;;;;;;49.10;26.65;;;4.70;99.90;;;;;;4900384;29;20028;-78
2023/01/01 04:32:44;;;;;;;48.35;26.33;;;4.70;99.90;;;;;;4900450;29;20037;-78
2023/01/01 04:35:11;;;;;;;43.88;24.35;;;4.80;99.90;;;;;;4883245;29;20087;-78
2023/01/01 04:37:38;;;;;;;46.58;26.17;;;4.80;99.90;;;;;;4900478;29;20603;-78
2023/01/01 04:40:05;;;;;;;45.10;23.73;;;4.90;99.90;;;;;;4900131;29;20029;-78
2023/01/01 04:42:31;;;;;;;40.72;23.17;;;5.00;99.90;;;;;;4900279;29;20040;-78
2023/01/01 04:44:56;;;;;;;42.42;23.67;;;5.00;99.90;;;;;;4899992;29;20501;-78
2023/01/01 04:47:22;;;;;;;43.10;23.23;;;5.10;99.90;;;;;;4898924;29;20061;-78
2023/01/01 04:49:47;;;;;;;40.35;24.15;;;5.00;99.90;;;;;;4883232;29;20032;-78
2023/01/01 04:52:13;;;;;;;38.75;21.95;;;5.00;99.90;;;;;;4900180;29;20033;-77
2023/01/01 04:54:39;;;;;;;38.72;21.63;;;4.90;99.90;;;;;;4898807;29;20399;-77
2023/01/01 04:57:04;;;;;;;43.38;23.65;;;4.90;99.90;;;;;;4899975;29;20064;-77
2023/01/01 04:59:30;;;;;;;37.33;21.73;;;4.90;99.90;;;;;;4883152;29;20020;-78
2023/01/01 05:01:56;;;;;;;38.80;21.60;;;4.90;99.90;;;;;;4883092;29;20542;-78
2023/01/01 05:04:22;;;;;;;38.92;21.27;;;4.90;99.90;;;;;;4883074;29;20020;-77
2023/01/01 05:06:47;;;;;;;35.60;18.70;;;5.00;99.90;;;;;;4883123;29;20029;-78
2023/01/01 05:09:13;;;;;;;42.38;21.60;;;5.00;99.90;;;;;;4883077;29;20033;-77
2023/01/01 05:11:38;;;;;;;37.92;20.23;;;5.00;99.90;;;;;;4899729;29;20104;-77
2023/01/01 05:14:06;;;;;;;34.75;21.13;;;5.00;99.90;;;;;;4899575;29;20513;-77
2023/01/01 05:16:34;;;;;;;32.92;20.17;;;5.00;99.90;;;;;;4882671;29;20029;-78
2023/01/01 05:19:01;;;;;;;51.03;29.17;;;4.80;99.90;;;;;;4899475;29;20108;-78
2023/01/01 05:21:32;;;;;;;44.67;25.15;;;4.70;99.90;;;;;;4882292;29;20403;-78
2023/01/01 05:24:01;;;;;;;37.08;22.13;;;4.70;99.90;;;;;;4882636;29;20501;-78
2023/01/01 05:26:30;;;;;;;41.65;24.52;;;4.60;99.90;;;;;;4898061;29;20108;-77
2023/01/01 05:28:57;;;;;;;39.55;23.40;;;4.60;99.90;;;;;;4899341;29;20027;-77
2023/01/01 05:31:28;;;;;;;40.50;22.13;;;4.60;99.90;;;;;;4899332;29;20115;-78
2023/01/01 05:33:56;;;;;;;40.50;22.48;;;4.70;99.90;;;;;;4882497;29;20040;-77
2023/01/01 05:36:24;;;;;;;38.08;20.05;;;4.60;99.90;;;;;;4899293;29;20051;-78
2023/01/01 05:38:51;;;;;;;35.50;20.80;;;4.70;99.90;;;;;;4882072;29;20036;-78
2023/01/01 05:41:19;;;;;;;38.47;22.50;;;4.70;99.90;;;;;;4882209;29;20025;-77
2023/01/01 05:43:44;;;;;;;41.05;21.85;;;4.70;99.90;;;;;;4897782;29;20039;-77
2023/01/01 05:46:15;;;;;;;39.42;21.20;;;4.80;99.90;;;;;;4898937;29;20032;-77
2023/01/01 05:48:41;;;;;;;43.17;20.92;;;4.80;99.90;;;;;;4879021;29;20452;-77
2023/01/01 05:51:16;;;;;;;36.72;20.45;;;4.90;99.90;;;;;;4880116;29;20081;-78
2023/01/01 05:53:43;;;;;;;35.67;19.83;;;4.90;99.90;;;;;;4878998;29;20466;-78
2023/01/01 05:56:09;;;;;;;36.95;22.33;;;5.00;99.90;;;;;;4879886;29;20025;-78
2023/01/01 05:58:35;;;;;;;50.15;27.38;;;5.10;99.90;;;;;;4880158;29;20021;-78
2023/01/01 06:01:19;;;;;;;57.05;28.98;;;5.10;99.90;;;;;;4885389;29;20035;-77
2023/01/01 06:03:48;;;;;;;48.78;32.03;;;5.10;99.90;;;;;;4898750;29;20359;-78
2023/01/01 06:06:17;;;;;;;57.53;41.95;;;5.10;99.90;;;;;;4863229;29;20025;-77
2023/01/01 06:08:47;;;;;;;37.45;24.25;;;5.20;99.90;;;;;;4880359;29;20063;-78
2023/01/01 06:11:13;;;;;;;28.85;16.98;;;5.10;99.90;;;;;;4881866;29;20032;-78
2023/01/01 06:13:38;;;;;;;32.38;17.70;;;5.30;99.90;;;;;;4897362;29;20037;-79
2023/01/01 06:16:04;;;;;;;27.95;15.65;;;5.40;99.90;;;;;;4898048;29;20047;-78
2023/01/01 06:18:33;;;;;;;25.48;15.38;;;5.60;99.90;;;;;;4897357;29;20059;-78
2023/01/01 06:21:19;;;;;;;25.30;14.45;;;5.70;99.90;;;;;;4881200;29;20368;-77
2023/01/01 06:23:45;;;;;;;24.23;15.02;;;5.80;99.90;;;;;;4881745;29;20035;-78
2023/01/01 06:26:20;;;;;;;26.95;16.08;;;5.90;99.90;;;;;;4881542;29;20029;-78
2023/01/01 06:28:46;;;;;;;27.35;16.40;;;5.90;99.90;;;;;;4881658;29;20021;-79
2023/01/01 06:31:14;;;;;;;30.88;18.25;;;5.80;99.90;;;;;;4897910;29;20028;-78
2023/01/01 06:33:41;;;;;;;29.27;17.38;;;5.80;99.90;;;;;;4881139;29;20502;-78
2023/01/01 06:36:09;;;;;;;25.70;15.90;;;5.60;99.90;;;;;;4880343;29;20056;-79
2023/01/01 06:38:37;;;;;;;29.55;16.35;;;5.50;99.90;;;;;;4895628;29;20028;-78
2023/01/01 06:41:05;;;;;;;28.60;18.55;;;5.50;99.90;;;;;;4895955;29;20028;-78
2023/01/01 06:43:32;;;;;;;33.58;24.25;;;5.40;99.90;;;;;;4898353;29;20575;-78
2023/01/01 06:46:22;;;;;;;31.38;18.00;;;5.50;99.90;;;;;;4895486;29;20028;-78
2023/01/01 06:48:49;;;;;;;26.65;17.00;;;5.60;99.90;;;;;;4881116;29;20069;-78
2023/01/01 06:51:20;;;;;;;25.63;15.02;;;5.70;99.90;;;;;;4895675;29;20028;-78
2023/01/01 06:53:47;;;;;;;24.55;16.08;;;5.80;99.90;;;;;;4897385;29;20048;-78
2023/01/01 06:56:12;;;;;;;26.77;16.85;;;5.80;99.90;;;;;;4896966;29;20053;-78
2023/01/01 06:58:38;;;;;;;30.42;18.98;;;5.90;99.90;;;;;;4896903;29;20402;-78
2023/01/01 07:01:05;;;;;;;36.58;27.90;;;6.00;99.90;;;;;;4895042;29;20024;-78
2023/01/01 07:03:31;;;;;;;42.28;30.05;;;6.10;99.90;;;;;;4897687;29;20068;-78
2023/01/01 07:05:56;;;;;;;29.75;18.33;;;6.10;99.90;;;;;;4899789;29;20097;-78
2023/01/01 07:08:22;;;;;;;36.20;20.00;;;6.10;99.90;;;;;;4916774;29;20048;-78
2023/01/01 07:10:48;;;;;;;35.15;20.58;;;6.30;99.90;;;;;;4895930;29;20509;-78
2023/01/01 07:13:13;;;;;;;34.50;19.17;;;6.30;99.90;;;;;;4879939;29;20073;-77
2023/01/01 07:15:39;;;;;;;32.15;17.65;;;6.30;99.90;;;;;;4896475;29;20506;-77
2023/01/01 07:18:04;;;;;;;26.08;15.27;;;6.30;99.90;;;;;;4879062;29;20550;-77
2023/01/01 07:20:30;;;;;;;27.10;16.73;;;6.50;99.90;;;;;;4877955;29;20044;-78
2023/01/01 07:22:56;;;;;;;19.77;13.02;;;6.50;99.90;;;;;;4880709;29;20432;-78
2023/01/01 07:25:21;;;;;;;18.98;12.40;;;6.60;99.90;;;;;;4895668;29;20112;-78
2023/01/01 07:27:47;;;;;;;28.85;17.10;;;6.60;99.90;;;;;;4897599;29;20028;-77
2023/01/01 07:30:12;;;;;;;34.40;18.48;;;6.60;99.90;;;;;;4895416;29;20024;-78
2023/01/01 07:32:38;;;;;;;32.03;18.85;;;6.60;99.90;;;;;;4876460;29;20495;-77
2023/01/01 07:35:04;;;;;;;16.65;11.07;;;6.60;99.90;;;;;;4893490;29;20108;-77
2023/01/01 07:37:29;;;;;;;15.30;10.13;;;6.80;99.90;;;;;;4895648;29;20020;-78
2023/01/01 07:39:55;;;;;;;11.77;8.32;;;6.80;99.90;;;;;;4879436;29;20012;-79
2023/01/01 07:42:21;;;;;;;13.30;8.13;;;7.10;99.90;;;;;;4893047;29;20031;-77
2023/01/01 07:44:46;;;;;;;10.55;6.38;;;7.30;99.90;;;;;;4894582;29;20085;-77
2023/01/01 07:47:20;;;;;;;13.48;8.95;;;7.50;99.90;;;;;;4894743;29;20064;-77
2023/01/01 07:49:46;;;;;;;10.55;6.75;;;7.70;99.90;;;;;;4895683;29;20052;-77
2023/01/01 07:52:12;;;;;;;10.57;7.00;;;8.00;99.90;;;;;;4892255;29;20032;-77
2023/01/01 07:54:37;;;;;;;11.43;6.97;;;8.10;99.90;;;;;;4887228;29;20041;-77
2023/01/01 07:57:03;;;;;;;22.02;10.18;;;8.30;99.90;;;;;;4893516;29;20052;-77
2023/01/01 07:59:28;;;;;;;27.17;10.80;;;8.60;99.90;;;;;;4895587;29;20031;-78
2023/01/01 08:01:54;;;;;;;26.13;11.55;;;8.80;99.90;;;;;;4898564;29;20099;-78
2023/01/01 08:04:19;;;;;;;56.80;25.50;;;8.90;99.90;;;;;;4910193;29;20032;-78
2023/01/01 08:06:45;;;;;;;33.85;16.73;;;9.00;99.90;;;;;;4918564;29;20024;-78
2023/01/01 08:09:10;;;;;;;19.05;9.70;;;9.00;99.90;;;;;;4895207;29;20021;-79
2023/01/01 08:11:36;;;;;;;26.13;13.27;;;9.00;99.90;;;;;;4911662;29;20389;-78
2023/01/01 08:14:01;;;;;;;98.78;42.33;;;9.00;99.90;;;;;;4904333;29;20083;-79
2023/01/01 08:16:27;;;;;;;20.95;10.95;;;9.00;99.90;;;;;;4912777;29;20024;-78
2023/01/01 08:18:53;;;;;;;30.52;15.02;;;9.00;99.90;;;;;;4901415;29;20398;-78
2023/01/01 08:21:18;;;;;;;17.10;9.10;;;8.90;99.90;;;;;;4901166;29;20502;-78
2023/01/01 08:23:44;;;;;;;17.02;9.80;;;8.90;99.90;;;;;;4899533;29;20040;-79
2023/01/01 08:26:15;;;;;;;19.20;9.95;;;8.80;99.90;;;;;;4893948;29;20608;-78
2023/01/01 08:28:41;;;;;;;14.30;9.10;;;8.80;99.90;;;;;;4914712;29;20039;-78
2023/01/01 08:31:06;;;;;;;21.88;12.70;;;8.70;99.90;;;;;;4881244;29;20029;-78
2023/01/01 08:33:32;;;;;;;16.92;8.52;;;8.70;99.90;;;;;;4899285;29;20044;-79
2023/01/01 08:35:58;;;;;;;18.33;9.55;;;8.70;99.90;;;;;;4899198;29;20024;-78
2023/01/01 08:38:24;;;;;;;35.00;16.48;;;8.70;99.90;;;;;;4900259;29;20032;-78
2023/01/01 08:40:50;;;;;;;73.63;33.15;;;8.80;99.90;;;;;;4882508;29;20355;-79
2023/01/01 08:43:15;;;;;;;71.00;33.72;;;8.80;99.90;;;;;;4902129;29;20036;-78
2023/01/01 08:45:41;;;;;;;55.40;25.90;;;8.80;99.90;;;;;;4885162;29;20024;-78
2023/01/01 08:48:06;;;;;;;16.75;9.50;;;8.80;99.90;;;;;;4880001;29;20127;-78
2023/01/01 08:50:32;;;;;;;54.92;29.08;;;8.80;99.90;;;;;;4877305;29;20119;-78
2023/01/01 08:52:58;;;;;;;40.70;23.60;;;8.80;99.90;;;;;;4900075;29;20036;-78
2023/01/01 08:55:24;;;;;;;21.48;12.18;;;8.80;99.90;;;;;;4880944;29;20064;-78
2023/01/01 08:57:50;;;;;;;210.95;106.97;;;8.80;99.90;;;;;;4899637;29;20076;-78
2023/01/01 09:00:16;;;;;;;235.93;121.03;;;8.80;99.90;;;;;;4896042;29;20048;-78
2023/01/01 09:02:42;;;;;;;132.75;67.53;;;8.90;99.90;;;;;;4895922;29;20395;-78
2023/01/01 09:05:08;;;;;;;103.47;51.78;;;8.90;99.90;;;;;;4902747;29;20028;-79
2023/01/01 09:07:34;;;;;;;491.60;266.15;;;9.00;99.90;;;;;;4887342;29;20029;-78
2023/01/01 09:10:00;;;;;;;119.00;58.08;;;9.00;99.90;;;;;;4900842;29;20111;-78
2023/01/01 09:12:25;;;;;;;46.42;24.05;;;9.20;99.90;;;;;;4889262;29;20027;-79
2023/01/01 09:14:51;;;;;;;83.22;37.42;;;9.30;99.90;;;;;;4900366;29;20542;-79
2023/01/01 09:17:17;;;;;;;167.48;77.35;;;9.40;99.90;;;;;;4896927;29;20031;-79
2023/01/01 09:19:42;;;;;;;43.15;19.98;;;9.50;99.90;;;;;;4900012;29;20037;-79
2023/01/01 09:22:10;;;;;;;38.95;20.33;;;9.60;99.90;;;;;;4897603;29;20080;-79
2023/01/01 09:24:35;;;;;;;35.13;18.90;;;9.80;99.90;;;;;;4898099;29;20016;-79
2023/01/01 09:27:01;;;;;;;15.98;9.10;;;9.80;99.90;;;;;;4898995;29;20028;-78
2023/01/01 09:29:26;;;;;;;16.38;8.35;;;10.00;99.90;;;;;;4909384;29;20115;-77
2023/01/01 09:31:52;;;;;;;10.32;6.40;;;10.10;99.90;;;;;;4885512;29;20028;-79
2023/01/01 09:34:18;;;;;;;9.63;6.25;;;10.20;99.90;;;;;;4900800;29;20040;-79
2023/01/01 09:36:44;;;;;;;8.38;5.65;;;10.20;99.90;;;;;;4886198;29;20424;-79
2023/01/01 09:39:13;;;;;;;12.25;6.60;;;10.30;99.90;;;;;;4906637;29;20084;-79
2023/01/01 09:42:16;;;;;;;12.10;6.82;;;10.30;99.90;;;;;;4902177;29;20501;-79
2023/01/01 09:45:01;;;;;;;10.85;7.32;;;10.40;99.90;;;;;;4894412;29;20025;-77
2023/01/01 09:47:33;;;;;;;11.23;6.32;;;10.50;99.90;;;;;;4891813;29;20028;-77
2023/01/01 09:50:35;;;;;;;9.65;6.15;;;10.60;99.90;;;;;;4899233;29;20112;-77
2023/01/01 09:53:12;;;;;;;9.48;6.25;;;10.70;99.90;;;;;;4864464;29;20051;-77
2023/01/01 09:55:55;;;;;;;9.00;5.47;;;10.80;99.90;;;;;;4877840;29;20033;-77
2023/01/01 09:58:25;;;;;;;9.77;6.63;;;10.90;99.80;;;;;;4905685;29;20052;-79
2023/01/01 10:00:56;;;;;;;11.77;6.65;;;11.00;97.80;;;;;;4895434;29;20028;-78
2023/01/01 10:03:50;;;;;;;11.75;6.00;;;11.10;96.40;;;;;;4896982;29;20044;-78
2023/01/01 10:06:32;;;;;;;8.80;5.80;;;11.20;95.40;;;;;;4878032;29;20405;-78
2023/01/01 10:09:06;;;;;;;8.30;5.72;;;11.20;95.10;;;;;;4893242;29;20032;-78
2023/01/01 10:11:37;;;;;;;10.13;6.40;;;11.30;93.20;;;;;;4901110;29;20044;-77
2023/01/01 10:14:19;;;;;;;9.95;5.72;;;11.40;93.20;;;;;;4916727;29;20047;-80
2023/01/01 10:16:51;;;;;;;9.60;5.50;;;11.50;93.10;;;;;;4888924;29;20055;-77
2023/01/01 10:19:22;;;;;;;8.93;5.50;;;11.60;91.90;;;;;;4893379;29;20063;-79
2023/01/01 10:21:51;;;;;;;11.52;5.80;;;11.60;92.40;;;;;;4898359;29;20053;-79
2023/01/01 10:24:47;;;;;;;8.25;5.18;;;11.70;90.90;;;;;;4908581;29;20032;-79
2023/01/01 10:27:29;;;;;;;8.40;6.18;;;11.80;88.10;;;;;;4914835;29;20390;-78
2023/01/01 10:29:56;;;;;;;8.15;5.95;;;12.00;87.50;;;;;;4907295;29;20028;-77
2023/01/01 10:32:31;;;;;;;8.30;5.63;;;12.10;86.70;;;;;;4899910;29;20044;-78
2023/01/01 10:34:58;;;;;;;8.60;5.00;;;12.20;85.10;;;;;;4888839;29;20033;-77
2023/01/01 10:37:25;;;;;;;7.53;5.43;;;12.30;84.30;;;;;;4898664;29;20032;-77
2023/01/01 10:39:51;;;;;;;8.32;5.43;;;12.40;83.90;;;;;;4890761;29;20085;-77
2023/01/01 10:42:17;;;;;;;9.45;5.07;;;12.50;83.70;;;;;;4897584;29;20024;-79
2023/01/01 10:44:43;;;;;;;48.85;19.30;;;12.60;82.20;;;;;;4880775;29;20032;-78
2023/01/01 10:47:27;;;;;;;11.88;6.88;;;12.70;81.60;;;;;;4899012;29;20064;-75
2023/01/01 10:49:58;;;;;;;5.75;4.40;;;12.70;81.80;;;;;;4888757;29;20032;-77
2023/01/01 10:52:33;;;;;;;8.15;5.30;;;12.90;80.00;;;;;;4885230;29;20057;-79
2023/01/01 10:54:59;;;;;;;9.98;5.95;;;12.90;80.00;;;;;;4889992;29;20048;-79
2023/01/01 10:57:33;;;;;;;7.13;4.60;;;13.00;79.30;;;;;;4896677;29;20017;-79
2023/01/01 11:00:19;;;;;;;8.15;5.15;;;13.00;78.60;;;;;;4907611;29;20036;-78
2023/01/01 11:02:44;;;;;;;7.97;5.63;;;13.00;79.40;;;;;;4885292;29;20076;-78
2023/01/01 11:05:17;;;;;;;8.18;5.35;;;13.20;77.80;;;;;;4894570;29;20035;-78
2023/01/01 11:07:44;;;;;;;8.00;4.30;;;13.20;77.80;;;;;;4894305;29;20029;-78
2023/01/01 11:10:22;;;;;;;5.40;3.83;;;13.20;76.30;;;;;;4908718;29;20048;-78
2023/01/01 11:12:49;;;;;;;6.28;3.88;;;13.40;75.30;;;;;;4916779;29;20501;-79
2023/01/01 11:15:44;;;;;;;6.90;4.78;;;13.40;74.40;;;;;;4915400;29;20043;-79
2023/01/01 11:18:20;;;;;;;5.13;4.15;;;13.40;75.20;;;;;;4885642;29;20043;-79
2023/01/01 11:20:57;;;;;;;6.07;3.60;;;13.40;74.10;;;;;;4899309;29;20040;-79
2023/01/01 11:23:33;;;;;;;6.25;4.68;;;13.40;73.50;;;;;;4907957;29;20402;-79
2023/01/01 11:25:59;;;;;;;6.20;4.45;;;13.50;73.80;;;;;;4891383;29;20492;-78
2023/01/01 11:28:25;;;;;;;6.03;4.13;;;13.40;74.30;;;;;;4916516;29;20032;-80
2023/01/01 11:31:14;;;;;;;4.10;3.17;;;13.40;73.40;;;;;;4895319;29;20032;-79
2023/01/01 11:33:55;;;;;;;4.47;3.65;;;13.40;73.10;;;;;;4912156;29;20474;-78
2023/01/01 11:36:24;;;;;;;10.38;5.25;;;13.40;73.20;;;;;;4904404;29;20028;-79
2023/01/01 11:39:10;;;;;;;27.58;13.52;;;13.40;73.60;;;;;;4916657;29;20083;-79
2023/01/01 11:41:44;;;;;;;13.77;6.88;;;13.40;74.30;;;;;;4925460;29;20024;-79
2023/01/01 11:44:12;;;;;;;14.40;8.05;;;13.50;74.50;;;;;;4892333;29;20031;-79
2023/01/01 11:46:38;;;;;;;8.90;5.30;;;13.40;75.50;;;;;;4886430;29;20036;-78
2023/01/01 11:49:19;;;;;;;6.47;4.93;;;13.40;76.60;;;;;;4900774;29;20067;-79
2023/01/01 11:51:46;;;;;;;4.78;3.80;;;13.40;75.50;;;;;;4899453;29;20034;-79
2023/01/01 11:54:34;;;;;;;7.00;4.63;;;13.50;75.50;;;;;;4895422;29;20037;-79
2023/01/01 11:57:15;;;;;;;5.32;4.20;;;13.60;75.70;;;;;;4907272;29;20028;-79
2023/01/01 12:00:15;;;;;;;5.45;4.32;;;13.60;74.70;;;;;;4913840;29;20028;-79
2023/01/01 12:02:51;;;;;;;8.20;4.85;;;13.70;73.90;;;;;;4861359;29;20170;-78
2023/01/01 12:05:26;;;;;;;6.10;3.90;;;13.80;73.30;;;;;;4899610;29;20072;-79
2023/01/01 12:07:52;;;;;;;6.32;4.90;;;13.80;72.80;;;;;;4901541;29;20458;-80
2023/01/01 12:10:23;;;;;;;6.28;3.83;;;13.90;72.90;;;;;;4892085;29;20490;-80
2023/01/01 12:13:04;;;;;;;16.48;8.13;;;13.90;72.20;;;;;;4913720;29;20072;-80
2023/01/01 12:15:45;;;;;;;80.82;34.80;;;14.00;71.90;;;;;;4912910;29;20024;-79
2023/01/01 12:18:13;;;;;;;17.85;9.23;;;14.10;69.90;;;;;;4912696;29;20040;-80
2023/01/01 12:21:02;;;;;;;9.93;6.28;;;14.20;69.60;;;;;;4889834;29;20040;-80
2023/01/01 12:23:29;;;;;;;9.63;5.78;;;14.20;69.70;;;;;;4883370;29;20181;-79
2023/01/01 12:26:17;;;;;;;5.45;3.42;;;14.30;69.10;;;;;;4901294;29;20032;-78
2023/01/01 12:28:57;;;;;;;4.93;4.15;;;14.40;68.20;;;;;;4886947;29;20033;-78
2023/01/01 12:31:57;;;;;;;18.65;9.07;;;14.40;67.70;;;;;;4901351;29;20028;-79
2023/01/01 12:34:26;;;;;;;5.10;3.40;;;14.40;67.70;;;;;;4914202;29;20068;-78
2023/01/01 12:37:12;;;;;;;6.18;4.05;;;14.40;67.60;;;;;;4892859;29;20056;-78
2023/01/01 12:40:00;;;;;;;11.23;6.35;;;14.50;66.80;;;;;;4879140;29;20521;-78
2023/01/01 12:42:46;;;;;;;12.00;5.72;;;14.40;67.20;;;;;;4883625;29;20044;-78
2023/01/01 12:45:28;;;;;;;31.23;14.02;;;14.40;67.90;;;;;;4896352;29;20439;-79
2023/01/01 12:48:03;;;;;;;50.85;24.20;;;14.40;68.00;;;;;;4903057;29;20037;-78
2023/01/01 12:50:35;;;;;;;19.23;8.85;;;14.30;67.90;;;;;;4882161;29;20028;-79
2023/01/01 12:53:25;;;;;;;7.60;4.45;;;14.30;68.30;;;;;;4879528;29;20028;-78
2023/01/01 12:55:59;;;;;;;6.88;4.55;;;14.30;68.50;;;;;;4895474;29;20502;-79
2023/01/01 12:58:42;;;;;;;7.22;4.70;;;14.30;68.10;;;;;;4883871;29;20044;-80
2023/01/01 13:01:15;;;;;;;11.73;6.35;;;14.40;67.90;;;;;;4881612;29;20510;-80
2023/01/01 13:03:54;;;;;;;75.65;31.85;;;14.30;68.10;;;;;;4900119;29;20024;-79
2023/01/01 13:06:47;;;;;;;6.38;4.22;;;14.30;68.60;;;;;;4893966;29;20532;-79